Time,TemperatureF,DewpointF,PressureIn,WindDirection,WindDirectionDegrees,WindSpeedMPH,WindSpeedGustMPH,Humidity,HourlyPrecipIn,Conditions,Clouds,dailyrainin,SolarRadiationWatts/m^2,SoftwareType,DateUTC
2013-10-19 00:11:00,50.0,40.0,-100.00,East,94,2.0,10.0,69,0.00,,,0.00,0.000000,,2013-10-19 07:11:00,
2013-10-19 00:42:00,50.0,40.0,-100.00,East,94,2.0,10.0,69,0.00,,,0.00,0.000000,,2013-10-19 07:42:00,
2013-10-19 00:52:00,50.0,40.0,-100.00,East,94,2.0,10.0,69,0.00,,,0.00,0.000000,,2013-10-19 07:52:00,
2013-10-19 01:03:00,50.0,40.0,-100.00,East,94,2.0,10.0,69,0.00,,,0.00,0.000000,,2013-10-19 08:03:00,
2013-10-19 01:11:00,51.0,41.0,-100.00,East,91,0.0,10.0,69,0.00,,,0.00,0.000000,,2013-10-19 08:11:00,
2013-10-19 01:42:00,51.0,41.0,-100.00,East,91,0.0,10.0,69,0.00,,,0.00,0.000000,,2013-10-19 08:42:00,
2013-10-19 02:11:00,49.0,39.0,-100.00,East,83,1.0,10.0,68,0.00,,,0.00,0.000000,,2013-10-19 09:11:00,
2013-10-19 02:43:00,49.0,39.0,-100.00,East,83,1.0,10.0,68,0.00,,,0.00,0.000000,,2013-10-19 09:43:00,
2013-10-19 02:54:00,49.0,39.0,-100.00,East,83,1.0,10.0,68,0.00,,,0.00,0.000000,,2013-10-19 09:54:00,
2013-10-19 03:03:00,49.0,39.0,-100.00,East,83,1.0,10.0,68,0.00,,,0.00,0.000000,,2013-10-19 10:03:00,
2013-10-19 03:11:00,50.0,40.0,-100.00,East,89,1.0,9.0,68,0.00,,,-99.99,0.000000,,2013-10-19 10:11:00,
2013-10-19 03:42:00,50.0,40.0,-100.00,East,89,1.0,9.0,68,0.00,,,-99.99,0.000000,,2013-10-19 10:42:00,
2013-10-19 03:53:00,50.0,40.0,-100.00,East,89,1.0,9.0,68,0.00,,,-99.99,0.000000,,2013-10-19 10:53:00,
2013-10-19 04:02:00,50.0,40.0,-100.00,East,89,1.0,9.0,68,0.00,,,-99.99,0.000000,,2013-10-19 11:02:00,
2013-10-19 04:11:00,49.0,39.0,-100.00,East,89,1.0,9.0,69,0.00,,,0.00,0.000000,,2013-10-19 11:11:00,
2013-10-19 04:42:00,49.0,39.0,-100.00,East,89,1.0,9.0,69,0.00,,,0.00,0.000000,,2013-10-19 11:42:00,
2013-10-19 04:52:00,49.0,39.0,-100.00,East,89,1.0,9.0,69,0.00,,,0.00,0.000000,,2013-10-19 11:52:00,
2013-10-19 05:01:00,49.0,39.0,-100.00,East,89,1.0,9.0,69,0.00,,,0.00,0.000000,,2013-10-19 12:01:00,
2013-10-19 05:11:00,47.0,39.0,-100.00,East,82,0.0,8.0,73,0.00,,,0.00,0.000000,,2013-10-19 12:11:00,
2013-10-19 05:43:00,47.0,39.0,-100.00,East,82,0.0,8.0,73,0.00,,,0.00,0.000000,,2013-10-19 12:43:00,
2013-10-19 05:52:00,47.0,39.0,-100.00,East,82,0.0,8.0,73,0.00,,,0.00,0.000000,,2013-10-19 12:52:00,
2013-10-19 06:01:00,47.0,39.0,-100.00,East,82,0.0,8.0,73,0.00,,,0.00,0.000000,,2013-10-19 13:01:00,
2013-10-19 06:42:00,48.0,40.0,-100.00,East,84,0.0,6.0,75,0.00,,,0.00,0.000000,,2013-10-19 13:42:00,
2013-10-19 06:52:00,48.0,40.0,-100.00,East,84,0.0,6.0,75,0.00,,,0.00,0.000000,,2013-10-19 13:52:00,
2013-10-19 07:01:00,48.0,40.0,-100.00,East,84,0.0,6.0,75,0.00,,,0.00,0.000000,,2013-10-19 14:01:00,
2013-10-19 07:11:00,46.0,40.0,-100.00,East,86,0.0,5.0,78,-99.99,,,0.00,0.000000,,2013-10-19 14:11:00,
2013-10-19 07:42:00,46.0,40.0,-100.00,East,86,0.0,5.0,78,-99.99,,,0.00,0.000000,,2013-10-19 14:42:00,
2013-10-19 07:52:00,46.0,40.0,-100.00,East,86,0.0,5.0,78,-99.99,,,0.00,0.000000,,2013-10-19 14:52:00,
2013-10-19 08:02:00,46.0,40.0,-100.00,East,86,0.0,5.0,78,-99.99,,,0.00,0.000000,,2013-10-19 15:02:00,
2013-10-19 08:11:00,46.0,38.0,-100.00,East,85,0.0,9.0,73,0.00,,,0.00,5.000000,,2013-10-19 15:11:00,
2013-10-19 08:44:00,46.0,38.0,-100.00,East,85,0.0,9.0,73,0.00,,,0.00,5.000000,,2013-10-19 15:44:00,
2013-10-19 08:55:00,46.0,38.0,-100.00,East,85,0.0,9.0,73,0.00,,,0.00,5.000000,,2013-10-19 15:55:00,
2013-10-19 09:04:00,46.0,38.0,-100.00,East,85,0.0,9.0,73,0.00,,,0.00,5.000000,,2013-10-19 16:04:00,
2013-10-19 10:11:00,58.0,42.0,-100.00,East,98,0.0,6.0,56,-99.99,,,0.00,281.000000,,2013-10-19 17:11:00,
2013-10-19 11:11:00,61.0,42.0,-100.00,East,101,1.0,5.0,50,0.00,,,0.00,441.000000,,2013-10-19 18:11:00,
2013-10-19 11:42:00,61.0,42.0,-100.00,East,101,1.0,5.0,50,0.00,,,0.00,441.000000,,2013-10-19 18:42:00,
2013-10-19 11:52:00,61.0,42.0,-100.00,East,101,1.0,5.0,50,0.00,,,0.00,441.000000,,2013-10-19 18:52:00,
2013-10-19 12:02:00,61.0,42.0,-100.00,East,101,1.0,5.0,50,0.00,,,0.00,441.000000,,2013-10-19 19:02:00,
2013-10-19 12:11:00,64.0,43.0,-100.00,South,183,0.0,5.0,46,0.00,,,0.00,575.000000,,2013-10-19 19:11:00,
2013-10-19 12:42:00,64.0,43.0,-100.00,South,183,0.0,5.0,46,0.00,,,0.00,575.000000,,2013-10-19 19:42:00,
2013-10-19 12:52:00,64.0,43.0,-100.00,South,183,0.0,5.0,46,0.00,,,0.00,575.000000,,2013-10-19 19:52:00,
2013-10-19 13:03:00,64.0,43.0,-100.00,South,183,0.0,5.0,46,0.00,,,0.00,575.000000,,2013-10-19 20:03:00,
2013-10-19 13:11:00,68.0,46.0,-100.00,SSE,163,0.0,4.0,46,0.00,,,0.00,629.000000,,2013-10-19 20:11:00,
2013-10-19 13:42:00,68.0,46.0,-100.00,SSE,163,0.0,4.0,46,0.00,,,0.00,629.000000,,2013-10-19 20:42:00,
2013-10-19 13:52:00,68.0,46.0,-100.00,SSE,163,0.0,4.0,46,0.00,,,0.00,629.000000,,2013-10-19 20:52:00,
2013-10-19 14:02:00,68.0,46.0,-100.00,SSE,163,0.0,4.0,46,0.00,,,0.00,629.000000,,2013-10-19 21:02:00,
2013-10-19 14:11:00,68.0,46.0,-100.00,SSE,161,0.0,5.0,45,0.00,,,0.00,580.000000,,2013-10-19 21:11:00,
2013-10-19 14:44:00,68.0,46.0,-100.00,SSE,161,0.0,5.0,45,0.00,,,0.00,580.000000,,2013-10-19 21:44:00,
2013-10-19 14:54:00,68.0,46.0,-100.00,SSE,161,0.0,5.0,45,0.00,,,0.00,580.000000,,2013-10-19 21:54:00,
2013-10-19 15:04:00,68.0,46.0,-100.00,SSE,161,0.0,5.0,45,0.00,,,0.00,580.000000,,2013-10-19 22:04:00,
2013-10-19 15:11:00,62.0,47.0,-100.00,SSE,159,0.0,6.0,58,0.00,,,0.00,342.000000,,2013-10-19 22:11:00,
2013-10-19 15:43:00,62.0,47.0,-100.00,SSE,159,0.0,6.0,58,0.00,,,0.00,342.000000,,2013-10-19 22:43:00,
2013-10-19 15:53:00,62.0,47.0,-100.00,SSE,159,0.0,6.0,58,0.00,,,0.00,342.000000,,2013-10-19 22:53:00,
2013-10-19 16:03:00,62.0,47.0,-100.00,SSE,159,0.0,6.0,58,0.00,,,0.00,342.000000,,2013-10-19 23:03:00,
2013-10-19 16:11:00,59.0,47.0,-100.00,SE,138,1.0,6.0,65,0.00,,,0.00,48.000000,,2013-10-19 23:11:00,
2013-10-19 16:42:00,59.0,47.0,-100.00,SE,138,1.0,6.0,65,0.00,,,0.00,48.000000,,2013-10-19 23:42:00,
2013-10-19 16:52:00,59.0,47.0,-100.00,SE,138,1.0,6.0,65,0.00,,,0.00,48.000000,,2013-10-19 23:52:00,
2013-10-19 17:02:00,59.0,47.0,-100.00,SE,138,1.0,6.0,65,0.00,,,0.00,48.000000,,2013-10-20 00:02:00,
2013-10-19 17:11:00,57.0,48.0,-100.00,East,97,0.0,5.0,72,0.00,,,0.00,24.000000,,2013-10-20 00:11:00,
2013-10-19 17:42:00,57.0,48.0,-100.00,East,97,0.0,5.0,72,0.00,,,0.00,24.000000,,2013-10-20 00:42:00,
2013-10-19 17:52:00,57.0,48.0,-100.00,East,97,0.0,5.0,72,0.00,,,0.00,24.000000,,2013-10-20 00:52:00,
2013-10-19 18:02:00,57.0,48.0,-100.00,East,97,0.0,5.0,72,0.00,,,0.00,24.000000,,2013-10-20 01:02:00,
2013-10-19 18:11:00,56.0,48.0,-100.00,WNW,297,0.0,4.0,74,0.00,,,0.00,11.000000,,2013-10-20 01:11:00,
2013-10-19 18:42:00,56.0,48.0,-100.00,WNW,297,0.0,4.0,74,0.00,,,0.00,11.000000,,2013-10-20 01:42:00,
2013-10-19 18:52:00,56.0,48.0,-100.00,WNW,297,0.0,4.0,74,0.00,,,0.00,11.000000,,2013-10-20 01:52:00,
2013-10-19 19:02:00,56.0,48.0,-100.00,WNW,297,0.0,4.0,74,0.00,,,0.00,11.000000,,2013-10-20 02:02:00,
2013-10-19 19:11:00,54.0,44.0,-100.00,NW,312,0.0,7.0,70,0.00,,,0.00,1.000000,,2013-10-20 02:11:00,
2013-10-19 19:42:00,54.0,44.0,-100.00,NW,312,0.0,7.0,70,0.00,,,0.00,1.000000,,2013-10-20 02:42:00,
2013-10-19 19:52:00,54.0,44.0,-100.00,NW,312,0.0,7.0,70,0.00,,,0.00,1.000000,,2013-10-20 02:52:00,
2013-10-19 20:02:00,54.0,44.0,-100.00,NW,312,0.0,7.0,70,0.00,,,0.00,1.000000,,2013-10-20 03:02:00,
2013-10-19 20:11:00,49.0,42.0,-100.00,NW,308,2.0,6.0,78,0.00,,,0.00,0.000000,,2013-10-20 03:11:00,
2013-10-19 20:44:00,49.0,42.0,-100.00,NW,308,2.0,6.0,78,0.00,,,0.00,0.000000,,2013-10-20 03:44:00,
2013-10-19 20:54:00,49.0,42.0,-100.00,NW,308,2.0,6.0,78,0.00,,,0.00,0.000000,,2013-10-20 03:54:00,
2013-10-19 21:02:00,-999.0,-99.9,-100.00,NW,308,2.0,6.0,-999,-99.99,,,-99.99,0.000000,,2013-10-20 04:02:00,
2013-10-19 21:11:00,48.0,44.0,-100.00,ENE,65,0.0,0.0,86,0.00,,,-99.99,0.000000,,2013-10-20 04:11:00,
2013-10-19 21:44:00,48.0,44.0,-100.00,ENE,65,0.0,0.0,86,0.00,,,-99.99,0.000000,,2013-10-20 04:44:00,
2013-10-19 21:54:00,48.0,44.0,-100.00,ENE,65,0.0,0.0,86,0.00,,,-99.99,0.000000,,2013-10-20 04:54:00,
2013-10-19 22:04:00,48.0,44.0,-100.00,ENE,65,0.0,0.0,86,0.00,,,-99.99,0.000000,,2013-10-20 05:04:00,
2013-10-19 22:11:00,48.0,43.0,-100.00,East,89,0.0,4.0,84,0.00,,,0.00,0.000000,,2013-10-20 05:11:00,
2013-10-19 22:43:00,48.0,43.0,-100.00,East,89,0.0,4.0,84,0.00,,,0.00,0.000000,,2013-10-20 05:43:00,
2013-10-19 22:52:00,48.0,43.0,-100.00,East,89,0.0,4.0,84,0.00,,,0.00,0.000000,,2013-10-20 05:52:00,
2013-10-19 23:02:00,48.0,43.0,-100.00,East,89,0.0,4.0,84,0.00,,,0.00,0.000000,,2013-10-20 06:02:00,
2013-10-19 23:11:00,48.0,44.0,-100.00,East,88,0.0,8.0,85,0.00,,,0.00,0.000000,,2013-10-20 06:11:00,
2013-10-19 23:42:00,48.0,44.0,-100.00,East,88,0.0,8.0,85,0.00,,,0.00,0.000000,,2013-10-20 06:42:00,
2013-10-19 23:52:00,48.0,44.0,-100.00,East,88,0.0,8.0,85,0.00,,,0.00,0.000000,,2013-10-20 06:52:00,